Time;durP1;ratioP1;P1;durP2;ratioP2;P2;SDS_P1;SDS_P2;PMS_P1;PMS_P2;Temp;Humidity;BMP_temperature;BMP_pressure;BME280_temperature;BME280_humidity;BME280_pressure;Samples;Min_cycle;Max_cycle;Signal;HPM_P1;HPM_P2
2022/06/02 00:04:35;;;;;;;8.90;4.40;;;;;;;13.22;65.81;99429.51;435734;1271;128478;-56
2022/06/02 00:14:47;;;;;;;5.40;4.70;;;;;;;13.13;67.14;99451.42;438539;1270;146970;-56
2022/06/02 00:25:00;;;;;;;5.80;4.80;;;;;;;13.00;67.80;99465.42;446904;1271;142437;-56
2022/06/02 00:35:13;;;;;;;6.00;5.40;;;;;;;12.94;68.24;99466.24;447023;1270;141567;-57
2022/06/02 00:45:19;;;;;;;4.00;3.60;;;;;;;12.84;67.89;99423.98;440652;1271;147580;-57
2022/06/02 01:06:23;;;;;;;5.50;4.00;;;;;;;12.45;69.16;99417.56;438059;1270;147106;-57
2022/06/02 01:16:37;;;;;;;5.30;4.40;;;;;;;12.21;70.18;99430.00;437957;1270;142438;-56
2022/06/02 01:27:11;;;;;;;3.80;3.50;;;;;;;12.26;70.76;99407.89;435961;1270;145514;-56
2022/06/02 01:37:25;;;;;;;4.40;4.10;;;;;;;12.28;70.10;99404.63;432603;1271;183691;-56
2022/06/02 01:47:33;;;;;;;3.80;3.00;;;;;;;12.31;70.99;99430.89;431323;1269;141842;-53
2022/06/02 01:57:49;;;;;;;5.40;4.70;;;;;;;12.32;71.51;99505.54;431773;1271;143116;-54
2022/06/02 02:08:19;;;;;;;5.60;4.80;;;;;;;12.35;72.39;99558.02;430598;1270;141858;-55
2022/06/02 02:18:36;;;;;;;3.80;3.10;;;;;;;12.20;73.01;99558.89;432423;1270;141862;-53
2022/06/02 02:28:53;;;;;;;5.30;4.90;;;;;;;12.10;73.26;99557.29;431060;1271;142597;-54
2022/06/02 02:39:02;;;;;;;6.70;6.10;;;;;;;11.99;73.75;99533.53;430859;1271;142029;-51
2022/06/02 02:49:14;;;;;;;5.60;5.20;;;;;;;11.82;74.51;99532.37;430774;1271;142884;-55
2022/06/02 02:59:28;;;;;;;5.90;5.30;;;;;;;11.72;75.11;99527.13;430692;1270;142576;-57
2022/06/02 03:09:42;;;;;;;6.90;5.50;;;;;;;11.67;75.50;99523.92;432280;1270;142843;-56
2022/06/02 03:19:55;;;;;;;5.50;5.00;;;;;;;11.59;75.83;99513.84;431364;1270;147042;-56
2022/06/02 03:30:09;;;;;;;5.60;5.10;;;;;;;11.41;76.32;99505.05;431550;1270;142413;-56
2022/06/02 03:40:26;;;;;;;5.10;4.60;;;;;;;11.37;76.89;99501.30;431977;1270;142192;-52
2022/06/02 03:50:50;;;;;;;5.80;5.20;;;;;;;11.42;77.19;99512.36;433251;1270;142540;-54
2022/06/02 04:00:57;;;;;;;6.00;5.40;;;;;;;11.53;77.56;99511.60;431390;1271;147073;-54
2022/06/02 04:11:14;;;;;;;5.80;5.20;;;;;;;11.74;77.71;99505.95;430823;1271;142546;-55
2022/06/02 04:21:30;;;;;;;4.90;4.50;;;;;;;13.01;77.20;99486.92;430704;1271;142944;-58
2022/06/02 04:31:48;;;;;;;3.60;3.30;;;;;;;13.67;74.82;99488.80;431640;1270;142219;-57
2022/06/02 04:42:06;;;;;;;3.70;3.50;;;;;;;13.66;73.80;99501.55;432245;1271;142165;-56
2022/06/02 04:52:15;;;;;;;3.40;3.10;;;;;;;13.70;73.73;99533.81;431456;1271;196604;-56
2022/06/02 05:02:26;;;;;;;3.20;3.00;;;;;;;13.37;73.90;99535.43;431980;1270;142594;-56
2022/06/02 05:12:37;;;;;;;6.00;4.30;;;;;;;13.37;74.12;99554.39;432513;1271;146183;-57
2022/06/02 05:23:15;;;;;;;4.50;3.60;;;;;;;13.58;74.41;99576.23;431166;1271;141290;-55
2022/06/02 05:33:37;;;;;;;3.70;3.50;;;;;;;13.65;74.32;99599.32;432353;1271;142464;-57
2022/06/02 05:43:49;;;;;;;4.00;3.60;;;;;;;13.56;74.48;99634.45;431962;1271;141456;-56
2022/06/02 05:54:07;;;;;;;5.90;5.40;;;;;;;13.39;74.84;99656.39;443345;1270;208077;-56
2022/06/02 06:04:38;;;;;;;5.70;5.30;;;;;;;13.20;75.13;99662.92;439680;1270;142546;-55
2022/06/02 06:14:56;;;;;;;5.20;4.80;;;;;;;13.36;75.52;99662.05;432197;1271;142553;-54
2022/06/02 06:25:09;;;;;;;5.60;4.60;;;;;;;13.56;75.28;99681.69;432759;1271;142254;-55
2022/06/02 06:35:23;;;;;;;4.00;3.70;;;;;;;13.84;75.11;99705.48;432602;1271;141523;-56
2022/06/02 06:45:33;;;;;;;3.30;3.00;;;;;;;14.28;74.49;99713.76;431950;1270;143775;-52
2022/06/02 06:55:44;;;;;;;4.90;3.70;;;;;;;14.55;72.84;99731.76;433057;1271;142293;-49
2022/06/02 07:05:57;;;;;;;4.00;3.00;;;;;;;14.25;71.59;99763.63;433663;1270;142908;-57
2022/06/02 07:16:09;;;;;;;2.60;2.40;;;;;;;13.70;70.44;99786.08;438999;1271;141867;-58
2022/06/02 07:26:25;;;;;;;2.10;1.70;;;;;;;14.24;69.84;99774.27;446862;1270;142015;-58
2022/06/02 07:36:50;;;;;;;1.50;1.40;;;;;;;17.66;65.00;99757.39;447540;1270;142380;-54
2022/06/02 07:47:11;;;;;;;1.60;0.80;;;;;;;18.89;61.86;99753.42;446840;1270;142334;-55
2022/06/02 07:57:24;;;;;;;1.70;0.90;;;;;;;22.15;56.92;99754.14;446591;1270;142175;-54
2022/06/02 08:07:35;;;;;;;4.00;0.90;;;;;;;23.49;52.66;99721.45;444984;1269;141375;-53
2022/06/02 08:17:43;;;;;;;3.00;0.80;;;;;;;22.85;50.67;99732.56;446986;1270;142543;-53
2022/06/02 08:28:00;;;;;;;0.80;0.50;;;;;;;22.12;50.07;99737.86;447545;1270;261490;-57
2022/06/02 08:38:19;;;;;;;1.10;0.60;;;;;;;23.12;48.54;99738.90;445398;1270;140736;-57
2022/06/02 08:49:12;;;;;;;2.10;0.50;;;;;;;23.58;46.41;99735.02;445927;1270;141201;-56
2022/06/02 08:59:55;;;;;;;3.60;0.50;;;;;;;22.58;45.05;99749.03;438664;1271;141305;-57
2022/06/02 09:10:35;;;;;;;8.50;0.90;;;;;;;21.80;45.26;99748.06;447729;1270;141788;-56
2022/06/02 09:20:48;;;;;;;0.50;0.30;;;;;;;20.97;45.55;99755.73;436291;1271;140688;-56
2022/06/02 09:31:05;;;;;;;0.70;0.60;;;;;;;20.37;45.78;99766.77;447763;1270;141686;-56
2022/06/02 09:41:29;;;;;;;3.60;0.80;;;;;;;20.36;46.62;99772.87;445882;1270;142107;-57
2022/06/02 09:51:51;;;;;;;3.80;0.80;;;;;;;20.44;46.15;99786.88;446090;1270;143850;-56
2022/06/02 10:02:08;;;;;;;1.30;0.60;;;;;;;20.55;45.66;99795.35;446933;1270;142767;-56
2022/06/02 10:22:58;;;;;;;1.20;0.90;;;;;;;20.00;45.21;99802.74;447015;1270;141205;-56
2022/06/02 10:33:50;;;;;;;3.80;1.10;;;;;;;20.28;45.24;99808.39;443019;1269;142866;-57
2022/06/02 10:44:15;;;;;;;2.70;1.00;;;;;;;20.32;44.14;99811.50;446158;1270;141696;-57
2022/06/02 10:54:37;;;;;;;1.40;1.30;;;;;;;20.44;44.25;99818.47;438078;1270;141999;-55
2022/06/02 11:05:13;;;;;;;3.30;1.70;;;;;;;20.74;44.02;99815.95;435463;1271;141313;-52
2022/06/02 11:15:49;;;;;;;3.00;1.00;;;;;;;20.67;43.32;99810.31;447463;1269;207886;-51
2022/06/02 11:26:13;;;;;;;1.80;1.20;;;;;;;20.64;43.24;99811.69;446855;1270;140902;-53
2022/06/02 11:36:38;;;;;;;0.70;0.70;;;;;;;20.36;42.92;99820.23;436746;1270;147401;-55
2022/06/02 11:47:05;;;;;;;2.30;1.10;;;;;;;20.34;42.72;99814.94;443418;1270;141164;-55
2022/06/02 11:57:33;;;;;;;6.30;1.00;;;;;;;20.58;42.09;99818.18;431022;1270;140594;-57
2022/06/02 12:08:07;;;;;;;3.90;1.40;;;;;;;20.83;41.53;99816.30;447599;1269;141608;-57
2022/06/02 12:18:20;;;;;;;2.30;1.00;;;;;;;20.83;41.41;99817.06;444094;1270;333622;-55
2022/06/02 12:28:47;;;;;;;1.80;0.90;;;;;;;20.75;40.71;99817.15;447574;1270;141899;-57
2022/06/02 12:39:23;;;;;;;3.70;2.00;;;;;;;20.16;40.14;99820.98;446976;1270;142709;-60
2022/06/02 12:49:56;;;;;;;0.80;0.70;;;;;;;20.13;39.99;99830.46;443337;1270;140889;-58
2022/06/02 13:00:24;;;;;;;0.50;0.50;;;;;;;20.43;39.17;99830.86;446905;1270;142245;-59
2022/06/02 13:10:37;;;;;;;0.80;0.60;;;;;;;20.42;39.40;99832.90;446943;1270;143441;-60
2022/06/02 13:21:11;;;;;;;4.20;1.00;;;;;;;20.38;38.85;99839.87;438354;1270;142227;-59
2022/06/02 13:31:59;;;;;;;2.20;1.00;;;;;;;20.47;39.08;99843.10;444949;1270;143455;-60
2022/06/02 13:42:34;;;;;;;2.20;0.90;;;;;;;20.36;38.77;99848.83;432974;1270;145239;-62
2022/06/02 13:53:13;;;;;;;5.30;1.10;;;;;;;20.21;38.62;99849.55;432712;1270;140840;-57
2022/06/02 14:03:39;;;;;;;1.50;1.00;;;;;;;19.94;39.35;99852.27;430539;1268;141975;-57
2022/06/02 14:14:02;;;;;;;3.20;1.00;;;;;;;19.85;39.58;99862.67;439225;1270;144835;-57
2022/06/02 14:24:12;;;;;;;1.20;0.90;;;;;;;19.70;39.48;99871.85;444932;1270;140611;-57
2022/06/02 14:34:27;;;;;;;3.60;0.60;;;;;;;19.77;39.65;99873.10;439033;1269;141192;-57
2022/06/02 14:44:40;;;;;;;4.00;0.80;;;;;;;19.84;39.08;99876.80;431720;1270;140998;-57
2022/06/02 14:54:55;;;;;;;6.70;1.10;;;;;;;19.65;39.32;99879.73;432575;1271;141695;-57
2022/06/02 15:05:18;;;;;;;2.80;0.70;;;;;;;19.43;39.49;99878.53;432730;1270;140155;-58
2022/06/02 15:15:33;;;;;;;1.00;0.70;;;;;;;19.36;39.27;99879.38;433384;1271;140761;-57
2022/06/02 15:25:49;;;;;;;1.00;0.70;;;;;;;19.37;39.10;99876.77;432364;1270;141152;-58
2022/06/02 15:36:12;;;;;;;1.50;0.50;;;;;;;19.47;39.54;99879.54;431671;1270;141083;-56
2022/06/02 15:46:49;;;;;;;1.30;0.50;;;;;;;19.49;39.14;99886.65;432681;1269;141996;-59
2022/06/02 15:57:36;;;;;;;5.90;0.90;;;;;;;19.49;38.97;99886.98;432550;1270;145076;-58
2022/06/02 16:08:20;;;;;;;0.60;0.50;;;;;;;19.10;38.95;99895.28;430275;1271;140741;-57
2022/06/02 16:19:06;;;;;;;1.00;0.70;;;;;;;18.52;39.72;99894.24;431737;1270;141068;-57
2022/06/02 16:30:08;;;;;;;1.40;0.60;;;;;;;18.59;40.09;99895.93;430366;1271;142880;-58
2022/06/02 16:40:33;;;;;;;1.20;0.70;;;;;;;18.92;39.59;99901.19;433075;1268;141154;-58
2022/06/02 16:51:00;;;;;;;1.70;0.60;;;;;;;19.05;39.31;99907.44;432118;1270;145924;-59
2022/06/02 17:01:16;;;;;;;1.70;1.00;;;;;;;18.60;39.04;99910.40;432170;1270;140748;-56
2022/06/02 17:11:24;;;;;;;1.00;0.50;;;;;;;18.34;39.01;99912.89;432179;1270;141499;-57
2022/06/02 17:21:45;;;;;;;1.00;0.70;;;;;;;18.15;39.45;99915.59;432987;1270;141770;-59
2022/06/02 17:32:11;;;;;;;7.60;1.30;;;;;;;17.91;40.09;99928.10;431256;1270;141637;-57
2022/06/02 17:42:31;;;;;;;1.00;0.50;;;;;;;17.64;40.59;99935.27;431307;1270;142492;-56
2022/06/02 17:52:55;;;;;;;1.40;0.80;;;;;;;17.63;40.93;99935.01;432762;1270;141831;-58
2022/06/02 18:03:06;;;;;;;3.50;0.80;;;;;;;17.46;41.00;99936.77;432755;1269;141432;-59
2022/06/02 18:13:39;;;;;;;2.40;0.70;;;;;;;16.89;42.21;99938.45;434087;1270;147177;-61
2022/06/02 18:23:58;;;;;;;3.30;0.80;;;;;;;16.40;43.67;99947.79;431500;1270;141158;-58
2022/06/02 18:34:20;;;;;;;3.20;1.00;;;;;;;15.86;45.37;99961.02;435983;1269;141137;-58
2022/06/02 18:45:02;;;;;;;1.20;0.90;;;;;;;15.27;46.57;99973.50;431874;1270;142407;-58
2022/06/02 18:55:33;;;;;;;0.90;0.90;;;;;;;14.78;47.74;99986.73;431780;1270;142611;-57
2022/06/02 19:17:05;;;;;;;2.00;1.60;;;;;;;13.75;52.22;100007.91;432188;1270;142632;-60
2022/06/02 19:27:31;;;;;;;13.20;6.50;;;;;;;13.24;53.67;100020.16;432469;1269;141175;-59
2022/06/02 19:37:47;;;;;;;28.60;11.30;;;;;;;12.77;55.18;100026.44;432260;1270;142588;-57
2022/06/02 19:47:57;;;;;;;23.90;11.50;;;;;;;12.39;56.60;100032.42;447705;1269;142079;-58
2022/06/02 19:58:14;;;;;;;14.80;6.00;;;;;;;12.10;57.69;100034.44;443106;1269;143017;-56
2022/06/02 20:08:29;;;;;;;22.30;8.70;;;;;;;11.81;58.71;100039.71;443689;1269;142856;-57
2022/06/02 20:18:40;;;;;;;35.20;10.20;;;;;;;11.53;59.76;100047.89;433543;1270;142768;-57
2022/06/02 20:28:52;;;;;;;21.30;10.80;;;;;;;11.28;60.58;100049.93;441799;1269;263477;-57
2022/06/02 20:39:20;;;;;;;29.40;14.80;;;;;;;11.06;61.47;100058.52;432836;1269;142800;-58
2022/06/02 20:49:28;;;;;;;60.30;30.70;;;;;;;10.82;62.48;100060.44;445739;1269;144095;-58
2022/06/02 20:59:41;;;;;;;41.00;24.80;;;;;;;10.63;63.14;100073.60;442281;1269;144724;-58
2022/06/02 21:09:57;;;;;;;101.60;36.70;;;;;;;10.42;63.99;100083.51;447695;1270;194787;-57
2022/06/02 21:20:11;;;;;;;49.50;25.40;;;;;;;10.34;64.18;100092.67;446634;1269;144121;-58
2022/06/02 21:30:37;;;;;;;38.50;22.50;;;;;;;10.26;64.77;100106.91;447464;1269;142919;-57
2022/06/02 21:40:41;;;;;;;21.20;13.20;;;;;;;10.14;65.19;100107.20;447410;1270;144027;-58
2022/06/02 21:50:51;;;;;;;34.10;11.10;;;;;;;10.06;65.52;100109.02;444077;1270;197983;-58
2022/06/02 22:01:04;;;;;;;11.40;7.30;;;;;;;10.09;65.81;100107.48;445889;1269;142596;-57
2022/06/02 22:11:22;;;;;;;10.50;6.70;;;;;;;10.23;65.59;100117.58;434184;1270;143211;-57
2022/06/02 22:21:35;;;;;;;8.10;5.60;;;;;;;10.23;65.44;100113.01;447880;1269;143068;-60
2022/06/02 22:31:54;;;;;;;14.60;7.60;;;;;;;10.17;65.63;100120.86;441406;1269;145976;-57
2022/06/02 22:42:09;;;;;;;11.20;7.20;;;;;;;9.95;66.30;100117.15;433297;1270;142282;-57
2022/06/02 22:52:28;;;;;;;12.10;6.50;;;;;;;9.67;66.66;100124.00;435608;1269;143478;-59
2022/06/02 23:03:03;;;;;;;7.40;5.70;;;;;;;9.42;67.07;100131.21;436227;1269;142927;-56
2022/06/02 23:13:38;;;;;;;6.30;5.70;;;;;;;9.24;67.64;100130.52;434979;1271;142320;-57
2022/06/02 23:24:23;;;;;;;7.50;6.80;;;;;;;9.03;68.10;100135.23;443104;1270;142389;-58
2022/06/02 23:34:38;;;;;;;7.50;4.80;;;;;;;8.78;68.57;100142.70;436033;1270;142989;-55
2022/06/02 23:45:01;;;;;;;8.10;5.50;;;;;;;8.63;68.86;100145.30;430907;1269;142401;-58
2022/06/02 23:55:27;;;;;;;9.40;6.10;;;;;;;8.46;69.45;100146.06;436008;1270;143463;-56
